sensor_id;sensor_type;location;lat;lon;timestamp;P1;durP1;ratioP1;P2;durP2;ratioP2
7515;SDS011;3799;47.184;8.538;2023-03-02T00:04:38;23.65;;;11.30;;
7515;SDS011;3799;47.184;8.538;2023-03-02T00:07:12;20.33;;;9.98;;
7515;SDS011;3799;47.184;8.538;2023-03-02T00:09:42;24.75;;;10.95;;
7515;SDS011;3799;47.184;8.538;2023-03-02T00:12:10;21.20;;;10.18;;
7515;SDS011;3799;47.184;8.538;2023-03-02T00:14:41;22.85;;;10.73;;
7515;SDS011;3799;47.184;8.538;2023-03-02T00:17:09;23.55;;;11.32;;
7515;SDS011;3799;47.184;8.538;2023-03-02T00:19:38;25.65;;;10.80;;
7515;SDS011;3799;47.184;8.538;2023-03-02T00:22:06;25.88;;;10.68;;
7515;SDS011;3799;47.184;8.538;2023-03-02T00:24:36;23.70;;;11.10;;
7515;SDS011;3799;47.184;8.538;2023-03-02T00:27:08;22.58;;;11.60;;
7515;SDS011;3799;47.184;8.538;2023-03-02T00:29:36;23.15;;;10.27;;
7515;SDS011;3799;47.184;8.538;2023-03-02T00:32:06;24.95;;;11.63;;
7515;SDS011;3799;47.184;8.538;2023-03-02T00:34:36;24.30;;;11.35;;
7515;SDS011;3799;47.184;8.538;2023-03-02T00:37:03;24.50;;;11.02;;
7515;SDS011;3799;47.184;8.538;2023-03-02T00:39:30;24.40;;;10.52;;
7515;SDS011;3799;47.184;8.538;2023-03-02T00:41:57;28.63;;;12.73;;
7515;SDS011;3799;47.184;8.538;2023-03-02T00:44:26;25.73;;;11.88;;
7515;SDS011;3799;47.184;8.538;2023-03-02T00:46:53;27.33;;;11.73;;
7515;SDS011;3799;47.184;8.538;2023-03-02T00:49:21;27.70;;;11.98;;
7515;SDS011;3799;47.184;8.538;2023-03-02T00:51:48;26.20;;;11.70;;
7515;SDS011;3799;47.184;8.538;2023-03-02T00:54:16;24.50;;;11.38;;
7515;SDS011;3799;47.184;8.538;2023-03-02T00:56:43;23.42;;;11.50;;
7515;SDS011;3799;47.184;8.538;2023-03-02T00:59:11;23.00;;;11.63;;
7515;SDS011;3799;47.184;8.538;2023-03-02T01:01:55;26.35;;;11.63;;
7515;SDS011;3799;47.184;8.538;2023-03-02T01:06:59;24.23;;;11.13;;
7515;SDS011;3799;47.184;8.538;2023-03-02T01:09:28;27.05;;;11.23;;
7515;SDS011;3799;47.184;8.538;2023-03-02T01:11:57;25.15;;;10.40;;
7515;SDS011;3799;47.184;8.538;2023-03-02T01:14:25;24.27;;;11.38;;
7515;SDS011;3799;47.184;8.538;2023-03-02T01:16:52;24.20;;;11.35;;
7515;SDS011;3799;47.184;8.538;2023-03-02T01:19:20;26.73;;;11.70;;
7515;SDS011;3799;47.184;8.538;2023-03-02T01:21:47;23.92;;;11.50;;
7515;SDS011;3799;47.184;8.538;2023-03-02T01:24:14;24.58;;;11.77;;
7515;SDS011;3799;47.184;8.538;2023-03-02T01:26:42;26.33;;;11.43;;
7515;SDS011;3799;47.184;8.538;2023-03-02T01:29:09;27.48;;;12.57;;
7515;SDS011;3799;47.184;8.538;2023-03-02T01:31:37;25.80;;;11.68;;
7515;SDS011;3799;47.184;8.538;2023-03-02T01:34:05;24.38;;;11.02;;
7515;SDS011;3799;47.184;8.538;2023-03-02T01:36:34;26.42;;;11.43;;
7515;SDS011;3799;47.184;8.538;2023-03-02T01:39:02;27.38;;;12.20;;
7515;SDS011;3799;47.184;8.538;2023-03-02T01:41:30;25.98;;;11.68;;
7515;SDS011;3799;47.184;8.538;2023-03-02T01:43:58;23.88;;;10.38;;
7515;SDS011;3799;47.184;8.538;2023-03-02T01:46:26;24.35;;;11.57;;
7515;SDS011;3799;47.184;8.538;2023-03-02T01:49:02;25.77;;;11.63;;
7515;SDS011;3799;47.184;8.538;2023-03-02T01:51:33;23.67;;;10.85;;
7515;SDS011;3799;47.184;8.538;2023-03-02T01:54:06;22.70;;;11.25;;
7515;SDS011;3799;47.184;8.538;2023-03-02T01:56:43;23.13;;;10.43;;
7515;SDS011;3799;47.184;8.538;2023-03-02T01:59:12;29.58;;;12.10;;
7515;SDS011;3799;47.184;8.538;2023-03-02T02:01:42;26.08;;;11.40;;
7515;SDS011;3799;47.184;8.538;2023-03-02T02:06:41;28.48;;;11.25;;
7515;SDS011;3799;47.184;8.538;2023-03-02T02:09:14;26.05;;;11.82;;
7515;SDS011;3799;47.184;8.538;2023-03-02T02:11:44;29.65;;;11.88;;
7515;SDS011;3799;47.184;8.538;2023-03-02T02:14:12;25.90;;;12.05;;
7515;SDS011;3799;47.184;8.538;2023-03-02T02:16:39;28.85;;;12.48;;
7515;SDS011;3799;47.184;8.538;2023-03-02T02:24:54;27.42;;;11.70;;
7515;SDS011;3799;47.184;8.538;2023-03-02T02:27:26;23.85;;;11.57;;
7515;SDS011;3799;47.184;8.538;2023-03-02T02:29:57;24.13;;;11.30;;
7515;SDS011;3799;47.184;8.538;2023-03-02T02:32:26;26.70;;;11.35;;
7515;SDS011;3799;47.184;8.538;2023-03-02T02:35:01;24.83;;;12.13;;
7515;SDS011;3799;47.184;8.538;2023-03-02T02:37:52;22.52;;;11.40;;
7515;SDS011;3799;47.184;8.538;2023-03-02T02:43:09;25.70;;;11.85;;
7515;SDS011;3799;47.184;8.538;2023-03-02T02:45:39;28.02;;;11.35;;
7515;SDS011;3799;47.184;8.538;2023-03-02T02:48:09;24.42;;;11.00;;
7515;SDS011;3799;47.184;8.538;2023-03-02T02:50:41;27.60;;;12.38;;
7515;SDS011;3799;47.184;8.538;2023-03-02T02:53:17;24.38;;;11.90;;
7515;SDS011;3799;47.184;8.538;2023-03-02T02:55:47;22.80;;;10.45;;
7515;SDS011;3799;47.184;8.538;2023-03-02T03:00:50;24.08;;;10.25;;
7515;SDS011;3799;47.184;8.538;2023-03-02T03:03:30;23.50;;;10.90;;
7515;SDS011;3799;47.184;8.538;2023-03-02T03:06:01;24.50;;;10.68;;
7515;SDS011;3799;47.184;8.538;2023-03-02T03:11:07;27.17;;;11.98;;
7515;SDS011;3799;47.184;8.538;2023-03-02T03:13:54;28.50;;;12.18;;
7515;SDS011;3799;47.184;8.538;2023-03-02T03:16:41;26.13;;;11.60;;
7515;SDS011;3799;47.184;8.538;2023-03-02T03:19:14;28.05;;;11.32;;
7515;SDS011;3799;47.184;8.538;2023-03-02T03:21:52;30.00;;;12.57;;
7515;SDS011;3799;47.184;8.538;2023-03-02T03:26:48;23.95;;;9.70;;
7515;SDS011;3799;47.184;8.538;2023-03-02T03:29:16;26.73;;;11.55;;
7515;SDS011;3799;47.184;8.538;2023-03-02T03:31:44;25.13;;;12.07;;
7515;SDS011;3799;47.184;8.538;2023-03-02T03:34:23;28.65;;;12.70;;
7515;SDS011;3799;47.184;8.538;2023-03-02T03:36:51;21.38;;;10.85;;
7515;SDS011;3799;47.184;8.538;2023-03-02T03:39:33;26.35;;;12.05;;
7515;SDS011;3799;47.184;8.538;2023-03-02T03:42:01;29.48;;;12.50;;
7515;SDS011;3799;47.184;8.538;2023-03-02T03:44:29;24.88;;;12.05;;
7515;SDS011;3799;47.184;8.538;2023-03-02T03:46:56;26.70;;;12.38;;
7515;SDS011;3799;47.184;8.538;2023-03-02T03:49:26;25.42;;;12.13;;
7515;SDS011;3799;47.184;8.538;2023-03-02T03:51:53;23.98;;;11.38;;
7515;SDS011;3799;47.184;8.538;2023-03-02T03:54:21;27.00;;;11.98;;
7515;SDS011;3799;47.184;8.538;2023-03-02T03:56:49;27.73;;;12.18;;
7515;SDS011;3799;47.184;8.538;2023-03-02T03:59:18;32.00;;;13.15;;
7515;SDS011;3799;47.184;8.538;2023-03-02T04:01:48;25.77;;;11.40;;
7515;SDS011;3799;47.184;8.538;2023-03-02T04:04:28;27.23;;;11.90;;
7515;SDS011;3799;47.184;8.538;2023-03-02T04:06:57;23.02;;;10.88;;
7515;SDS011;3799;47.184;8.538;2023-03-02T04:09:25;26.88;;;11.77;;
7515;SDS011;3799;47.184;8.538;2023-03-02T04:11:54;27.25;;;11.40;;
7515;SDS011;3799;47.184;8.538;2023-03-02T04:14:22;26.17;;;12.68;;
7515;SDS011;3799;47.184;8.538;2023-03-02T04:16:50;28.40;;;13.00;;
7515;SDS011;3799;47.184;8.538;2023-03-02T04:19:20;28.98;;;12.10;;
7515;SDS011;3799;47.184;8.538;2023-03-02T04:21:49;25.30;;;11.30;;
7515;SDS011;3799;47.184;8.538;2023-03-02T04:24:18;27.00;;;11.90;;
7515;SDS011;3799;47.184;8.538;2023-03-02T04:26:48;31.38;;;14.57;;
7515;SDS011;3799;47.184;8.538;2023-03-02T04:29:16;28.92;;;13.15;;
7515;SDS011;3799;47.184;8.538;2023-03-02T04:31:44;29.83;;;13.48;;
7515;SDS011;3799;47.184;8.538;2023-03-02T04:34:11;27.98;;;12.63;;
7515;SDS011;3799;47.184;8.538;2023-03-02T04:36:39;29.42;;;13.20;;
7515;SDS011;3799;47.184;8.538;2023-03-02T04:39:06;27.25;;;11.88;;
7515;SDS011;3799;47.184;8.538;2023-03-02T04:41:35;28.92;;;13.52;;
7515;SDS011;3799;47.184;8.538;2023-03-02T04:44:02;27.65;;;12.05;;
7515;SDS011;3799;47.184;8.538;2023-03-02T04:46:30;19.80;;;10.02;;
7515;SDS011;3799;47.184;8.538;2023-03-02T04:48:58;30.95;;;12.18;;
7515;SDS011;3799;47.184;8.538;2023-03-02T04:51:27;31.55;;;13.30;;
7515;SDS011;3799;47.184;8.538;2023-03-02T04:53:58;27.27;;;12.13;;
7515;SDS011;3799;47.184;8.538;2023-03-02T04:56:27;28.08;;;12.45;;
7515;SDS011;3799;47.184;8.538;2023-03-02T04:58:54;23.35;;;10.85;;
7515;SDS011;3799;47.184;8.538;2023-03-02T05:01:22;31.83;;;12.93;;
7515;SDS011;3799;47.184;8.538;2023-03-02T05:03:50;29.85;;;13.38;;
7515;SDS011;3799;47.184;8.538;2023-03-02T05:06:18;29.55;;;12.63;;
7515;SDS011;3799;47.184;8.538;2023-03-02T05:08:51;27.45;;;12.07;;
7515;SDS011;3799;47.184;8.538;2023-03-02T05:11:20;27.52;;;12.00;;
7515;SDS011;3799;47.184;8.538;2023-03-02T05:13:51;25.95;;;13.00;;
7515;SDS011;3799;47.184;8.538;2023-03-02T05:16:21;26.95;;;12.20;;
7515;SDS011;3799;47.184;8.538;2023-03-02T05:18:48;25.58;;;11.60;;
7515;SDS011;3799;47.184;8.538;2023-03-02T05:21:16;27.88;;;12.13;;
7515;SDS011;3799;47.184;8.538;2023-03-02T05:23:44;23.92;;;10.90;;
7515;SDS011;3799;47.184;8.538;2023-03-02T05:26:12;27.73;;;12.23;;
7515;SDS011;3799;47.184;8.538;2023-03-02T05:28:40;28.25;;;12.30;;
7515;SDS011;3799;47.184;8.538;2023-03-02T05:31:08;27.42;;;11.75;;
7515;SDS011;3799;47.184;8.538;2023-03-02T05:33:59;26.30;;;11.95;;
7515;SDS011;3799;47.184;8.538;2023-03-02T05:36:27;27.60;;;12.27;;
7515;SDS011;3799;47.184;8.538;2023-03-02T05:38:54;27.17;;;12.80;;
7515;SDS011;3799;47.184;8.538;2023-03-02T05:41:21;27.40;;;12.10;;
7515;SDS011;3799;47.184;8.538;2023-03-02T05:43:48;24.80;;;11.40;;
7515;SDS011;3799;47.184;8.538;2023-03-02T05:46:17;25.33;;;11.95;;
7515;SDS011;3799;47.184;8.538;2023-03-02T05:48:48;29.55;;;12.95;;
7515;SDS011;3799;47.184;8.538;2023-03-02T05:51:16;27.60;;;13.25;;
7515;SDS011;3799;47.184;8.538;2023-03-02T05:53:44;25.23;;;11.93;;
7515;SDS011;3799;47.184;8.538;2023-03-02T05:56:11;29.25;;;12.85;;
7515;SDS011;3799;47.184;8.538;2023-03-02T05:58:38;27.20;;;11.93;;
7515;SDS011;3799;47.184;8.538;2023-03-02T06:01:10;28.40;;;12.68;;
7515;SDS011;3799;47.184;8.538;2023-03-02T06:03:41;27.95;;;13.32;;
7515;SDS011;3799;47.184;8.538;2023-03-02T06:06:09;35.53;;;13.10;;
7515;SDS011;3799;47.184;8.538;2023-03-02T06:08:40;29.38;;;13.15;;
7515;SDS011;3799;47.184;8.538;2023-03-02T06:11:08;28.80;;;12.63;;
7515;SDS011;3799;47.184;8.538;2023-03-02T06:13:37;22.77;;;10.88;;
7515;SDS011;3799;47.184;8.538;2023-03-02T06:16:05;25.95;;;13.20;;
7515;SDS011;3799;47.184;8.538;2023-03-02T06:18:33;27.23;;;11.30;;
7515;SDS011;3799;47.184;8.538;2023-03-02T06:21:01;27.65;;;12.77;;
7515;SDS011;3799;47.184;8.538;2023-03-02T06:23:29;24.33;;;12.23;;
7515;SDS011;3799;47.184;8.538;2023-03-02T06:25:56;29.30;;;14.60;;
7515;SDS011;3799;47.184;8.538;2023-03-02T06:28:24;30.70;;;13.65;;
7515;SDS011;3799;47.184;8.538;2023-03-02T06:30:51;29.40;;;13.25;;
7515;SDS011;3799;47.184;8.538;2023-03-02T06:33:19;37.30;;;13.25;;
7515;SDS011;3799;47.184;8.538;2023-03-02T06:35:47;28.98;;;13.02;;
7515;SDS011;3799;47.184;8.538;2023-03-02T06:38:16;31.13;;;12.75;;
7515;SDS011;3799;47.184;8.538;2023-03-02T06:40:44;31.35;;;14.52;;
7515;SDS011;3799;47.184;8.538;2023-03-02T06:43:12;37.13;;;16.08;;
7515;SDS011;3799;47.184;8.538;2023-03-02T06:45:39;29.75;;;14.48;;
7515;SDS011;3799;47.184;8.538;2023-03-02T06:48:06;30.35;;;13.48;;
7515;SDS011;3799;47.184;8.538;2023-03-02T06:50:34;29.83;;;12.98;;
7515;SDS011;3799;47.184;8.538;2023-03-02T06:53:01;30.02;;;13.45;;
7515;SDS011;3799;47.184;8.538;2023-03-02T06:55:29;27.95;;;14.32;;
7515;SDS011;3799;47.184;8.538;2023-03-02T06:57:56;30.48;;;14.77;;
7515;SDS011;3799;47.184;8.538;2023-03-02T07:00:24;30.83;;;14.85;;
7515;SDS011;3799;47.184;8.538;2023-03-02T07:02:54;29.33;;;14.88;;
7515;SDS011;3799;47.184;8.538;2023-03-02T07:05:22;31.02;;;14.93;;
7515;SDS011;3799;47.184;8.538;2023-03-02T07:07:50;27.35;;;14.05;;
7515;SDS011;3799;47.184;8.538;2023-03-02T07:10:18;28.48;;;14.55;;
7515;SDS011;3799;47.184;8.538;2023-03-02T07:12:45;32.15;;;14.55;;
7515;SDS011;3799;47.184;8.538;2023-03-02T07:15:13;31.95;;;13.98;;
7515;SDS011;3799;47.184;8.538;2023-03-02T07:17:41;29.63;;;14.75;;
7515;SDS011;3799;47.184;8.538;2023-03-02T07:20:11;29.38;;;14.73;;
7515;SDS011;3799;47.184;8.538;2023-03-02T07:22:40;30.05;;;14.52;;
7515;SDS011;3799;47.184;8.538;2023-03-02T07:25:07;28.15;;;14.48;;
7515;SDS011;3799;47.184;8.538;2023-03-02T07:27:36;28.38;;;14.82;;
7515;SDS011;3799;47.184;8.538;2023-03-02T07:30:04;28.88;;;13.82;;
7515;SDS011;3799;47.184;8.538;2023-03-02T07:32:32;29.38;;;15.18;;
7515;SDS011;3799;47.184;8.538;2023-03-02T07:34:59;28.13;;;14.60;;
7515;SDS011;3799;47.184;8.538;2023-03-02T07:37:26;30.33;;;15.23;;
7515;SDS011;3799;47.184;8.538;2023-03-02T07:39:54;32.63;;;15.43;;
7515;SDS011;3799;47.184;8.538;2023-03-02T07:42:21;31.23;;;16.27;;
7515;SDS011;3799;47.184;8.538;2023-03-02T07:44:50;34.20;;;15.85;;
7515;SDS011;3799;47.184;8.538;2023-03-02T07:47:19;28.63;;;14.50;;
7515;SDS011;3799;47.184;8.538;2023-03-02T07:49:46;28.42;;;14.63;;
7515;SDS011;3799;47.184;8.538;2023-03-02T07:52:13;31.88;;;15.88;;
7515;SDS011;3799;47.184;8.538;2023-03-02T07:54:40;29.77;;;14.93;;
7515;SDS011;3799;47.184;8.538;2023-03-02T07:57:08;31.27;;;15.80;;
7515;SDS011;3799;47.184;8.538;2023-03-02T07:59:35;31.67;;;16.30;;
7515;SDS011;3799;47.184;8.538;2023-03-02T08:02:02;31.60;;;15.90;;
7515;SDS011;3799;47.184;8.538;2023-03-02T08:04:29;31.08;;;14.25;;
7515;SDS011;3799;47.184;8.538;2023-03-02T08:06:57;34.97;;;16.35;;
7515;SDS011;3799;47.184;8.538;2023-03-02T08:09:24;35.38;;;15.80;;
7515;SDS011;3799;47.184;8.538;2023-03-02T08:11:51;28.52;;;13.65;;
7515;SDS011;3799;47.184;8.538;2023-03-02T08:14:21;34.00;;;14.75;;
7515;SDS011;3799;47.184;8.538;2023-03-02T08:16:49;35.03;;;16.17;;
7515;SDS011;3799;47.184;8.538;2023-03-02T08:19:18;31.83;;;15.43;;
7515;SDS011;3799;47.184;8.538;2023-03-02T08:21:45;33.85;;;15.32;;
7515;SDS011;3799;47.184;8.538;2023-03-02T08:24:12;31.92;;;15.55;;
7515;SDS011;3799;47.184;8.538;2023-03-02T08:26:40;34.03;;;15.73;;
7515;SDS011;3799;47.184;8.538;2023-03-02T08:29:07;33.03;;;14.88;;
7515;SDS011;3799;47.184;8.538;2023-03-02T08:31:37;32.00;;;14.60;;
7515;SDS011;3799;47.184;8.538;2023-03-02T08:34:04;31.65;;;15.07;;
7515;SDS011;3799;47.184;8.538;2023-03-02T08:36:31;34.88;;;15.90;;
7515;SDS011;3799;47.184;8.538;2023-03-02T08:38:59;34.08;;;15.38;;
7515;SDS011;3799;47.184;8.538;2023-03-02T08:41:26;36.55;;;15.10;;
7515;SDS011;3799;47.184;8.538;2023-03-02T08:44:10;32.80;;;15.57;;
7515;SDS011;3799;47.184;8.538;2023-03-02T08:46:37;35.80;;;15.02;;
7515;SDS011;3799;47.184;8.538;2023-03-02T08:49:05;35.85;;;16.02;;
7515;SDS011;3799;47.184;8.538;2023-03-02T08:51:32;36.97;;;16.45;;
7515;SDS011;3799;47.184;8.538;2023-03-02T08:54:00;33.00;;;15.63;;
7515;SDS011;3799;47.184;8.538;2023-03-02T08:56:28;35.88;;;16.08;;
7515;SDS011;3799;47.184;8.538;2023-03-02T08:58:58;34.10;;;15.48;;
7515;SDS011;3799;47.184;8.538;2023-03-02T09:01:29;32.40;;;15.30;;
7515;SDS011;3799;47.184;8.538;2023-03-02T09:03:59;35.25;;;15.73;;
7515;SDS011;3799;47.184;8.538;2023-03-02T09:06:28;32.60;;;15.02;;
7515;SDS011;3799;47.184;8.538;2023-03-02T09:08:57;32.53;;;14.80;;
7515;SDS011;3799;47.184;8.538;2023-03-02T09:11:24;30.25;;;14.02;;
7515;SDS011;3799;47.184;8.538;2023-03-02T09:13:53;29.63;;;14.27;;
7515;SDS011;3799;47.184;8.538;2023-03-02T09:16:22;29.83;;;12.85;;
7515;SDS011;3799;47.184;8.538;2023-03-02T09:18:55;28.65;;;12.65;;
7515;SDS011;3799;47.184;8.538;2023-03-02T09:21:22;31.33;;;13.00;;
7515;SDS011;3799;47.184;8.538;2023-03-02T09:23:50;28.38;;;13.25;;
7515;SDS011;3799;47.184;8.538;2023-03-02T09:26:21;30.58;;;13.90;;
7515;SDS011;3799;47.184;8.538;2023-03-02T09:28:48;29.48;;;12.48;;
7515;SDS011;3799;47.184;8.538;2023-03-02T09:31:16;29.92;;;13.82;;
7515;SDS011;3799;47.184;8.538;2023-03-02T09:33:46;32.40;;;14.65;;
7515;SDS011;3799;47.184;8.538;2023-03-02T09:36:18;31.00;;;13.70;;
7515;SDS011;3799;47.184;8.538;2023-03-02T09:38:48;30.13;;;13.00;;
7515;SDS011;3799;47.184;8.538;2023-03-02T09:46:48;28.13;;;12.70;;
7515;SDS011;3799;47.184;8.538;2023-03-02T09:52:05;29.55;;;12.10;;
7515;SDS011;3799;47.184;8.538;2023-03-02T09:54:54;30.27;;;13.05;;
7515;SDS011;3799;47.184;8.538;2023-03-02T09:57:24;32.58;;;13.45;;
7515;SDS011;3799;47.184;8.538;2023-03-02T10:00:01;30.23;;;12.98;;
7515;SDS011;3799;47.184;8.538;2023-03-02T10:02:49;28.70;;;13.45;;
7515;SDS011;3799;47.184;8.538;2023-03-02T10:05:24;31.60;;;13.52;;
7515;SDS011;3799;47.184;8.538;2023-03-02T10:07:56;32.08;;;14.27;;
7515;SDS011;3799;47.184;8.538;2023-03-02T10:10:29;26.45;;;12.90;;
7515;SDS011;3799;47.184;8.538;2023-03-02T10:27:14;31.83;;;14.90;;
7515;SDS011;3799;47.184;8.538;2023-03-02T10:29:52;28.98;;;13.07;;
7515;SDS011;3799;47.184;8.538;2023-03-02T10:32:28;33.40;;;14.95;;
7515;SDS011;3799;47.184;8.538;2023-03-02T10:34:58;32.28;;;14.32;;
7515;SDS011;3799;47.184;8.538;2023-03-02T10:37:28;34.20;;;15.00;;
7515;SDS011;3799;47.184;8.538;2023-03-02T10:39:59;35.80;;;15.45;;
7515;SDS011;3799;47.184;8.538;2023-03-02T10:42:32;32.90;;;14.98;;
7515;SDS011;3799;47.184;8.538;2023-03-02T10:45:22;33.10;;;14.93;;
7515;SDS011;3799;47.184;8.538;2023-03-02T10:48:07;33.15;;;14.90;;
7515;SDS011;3799;47.184;8.538;2023-03-02T10:50:36;31.38;;;15.60;;
7515;SDS011;3799;47.184;8.538;2023-03-02T10:53:06;35.58;;;16.08;;
7515;SDS011;3799;47.184;8.538;2023-03-02T10:55:43;33.30;;;14.45;;
7515;SDS011;3799;47.184;8.538;2023-03-02T10:58:28;34.72;;;15.52;;
7515;SDS011;3799;47.184;8.538;2023-03-02T11:01:04;37.55;;;16.75;;
7515;SDS011;3799;47.184;8.538;2023-03-02T11:03:53;32.72;;;15.52;;
7515;SDS011;3799;47.184;8.538;2023-03-02T11:06:21;37.70;;;16.40;;
7515;SDS011;3799;47.184;8.538;2023-03-02T11:08:59;37.00;;;16.60;;
7515;SDS011;3799;47.184;8.538;2023-03-02T11:11:28;30.67;;;15.93;;
7515;SDS011;3799;47.184;8.538;2023-03-02T11:14:05;34.05;;;15.57;;
7515;SDS011;3799;47.184;8.538;2023-03-02T11:16:34;40.13;;;18.02;;
7515;SDS011;3799;47.184;8.538;2023-03-02T11:19:14;38.13;;;16.38;;
7515;SDS011;3799;47.184;8.538;2023-03-02T11:22:04;37.30;;;16.52;;
7515;SDS011;3799;47.184;8.538;2023-03-02T11:24:41;34.63;;;15.45;;
7515;SDS011;3799;47.184;8.538;2023-03-02T11:27:20;31.30;;;15.25;;
7515;SDS011;3799;47.184;8.538;2023-03-02T11:30:03;32.40;;;15.38;;
7515;SDS011;3799;47.184;8.538;2023-03-02T11:32:40;36.38;;;16.48;;
7515;SDS011;3799;47.184;8.538;2023-03-02T11:35:13;32.08;;;15.65;;
7515;SDS011;3799;47.184;8.538;2023-03-02T11:43:53;33.70;;;14.95;;
7515;SDS011;3799;47.184;8.538;2023-03-02T11:46:22;32.38;;;16.52;;
7515;SDS011;3799;47.184;8.538;2023-03-02T11:49:02;32.45;;;14.70;;
7515;SDS011;3799;47.184;8.538;2023-03-02T11:51:34;38.97;;;14.85;;
7515;SDS011;3799;47.184;8.538;2023-03-02T11:54:38;36.03;;;15.52;;
7515;SDS011;3799;47.184;8.538;2023-03-02T11:57:18;34.30;;;15.80;;
7515;SDS011;3799;47.184;8.538;2023-03-02T11:59:51;34.80;;;16.35;;
7515;SDS011;3799;47.184;8.538;2023-03-02T12:02:20;35.83;;;16.83;;
7515;SDS011;3799;47.184;8.538;2023-03-02T12:05:01;32.10;;;14.63;;
7515;SDS011;3799;47.184;8.538;2023-03-02T12:07:30;34.13;;;16.10;;
7515;SDS011;3799;47.184;8.538;2023-03-02T12:10:04;31.58;;;15.27;;
7515;SDS011;3799;47.184;8.538;2023-03-02T12:12:39;33.78;;;16.00;;
7515;SDS011;3799;47.184;8.538;2023-03-02T12:15:28;29.10;;;13.88;;
7515;SDS011;3799;47.184;8.538;2023-03-02T12:21:07;31.25;;;15.20;;
7515;SDS011;3799;47.184;8.538;2023-03-02T12:24:00;34.75;;;15.43;;
7515;SDS011;3799;47.184;8.538;2023-03-02T12:26:31;31.00;;;14.88;;
7515;SDS011;3799;47.184;8.538;2023-03-02T12:31:54;31.00;;;14.98;;
7515;SDS011;3799;47.184;8.538;2023-03-02T12:36:49;34.63;;;15.68;;
7515;SDS011;3799;47.184;8.538;2023-03-02T12:39:24;36.22;;;17.13;;
7515;SDS011;3799;47.184;8.538;2023-03-02T12:42:07;36.53;;;15.10;;
7515;SDS011;3799;47.184;8.538;2023-03-02T12:47:34;32.22;;;16.50;;
7515;SDS011;3799;47.184;8.538;2023-03-02T12:50:05;33.70;;;16.48;;
7515;SDS011;3799;47.184;8.538;2023-03-02T12:52:42;32.70;;;14.60;;
7515;SDS011;3799;47.184;8.538;2023-03-02T12:55:17;32.85;;;15.75;;
7515;SDS011;3799;47.184;8.538;2023-03-02T12:57:47;31.42;;;15.48;;
7515;SDS011;3799;47.184;8.538;2023-03-02T13:00:16;36.50;;;16.50;;
7515;SDS011;3799;47.184;8.538;2023-03-02T13:02:46;28.27;;;14.98;;
7515;SDS011;3799;47.184;8.538;2023-03-02T13:05:17;30.20;;;15.32;;
7515;SDS011;3799;47.184;8.538;2023-03-02T13:12:57;30.80;;;15.10;;
7515;SDS011;3799;47.184;8.538;2023-03-02T13:15:25;33.20;;;17.00;;
7515;SDS011;3799;47.184;8.538;2023-03-02T13:17:54;30.13;;;15.43;;
7515;SDS011;3799;47.184;8.538;2023-03-02T13:20:24;32.67;;;15.40;;
7515;SDS011;3799;47.184;8.538;2023-03-02T13:22:54;33.72;;;16.25;;
7515;SDS011;3799;47.184;8.538;2023-03-02T13:25:24;33.92;;;15.93;;
7515;SDS011;3799;47.184;8.538;2023-03-02T13:27:58;29.73;;;14.88;;
7515;SDS011;3799;47.184;8.538;2023-03-02T13:30:33;30.92;;;15.90;;
7515;SDS011;3799;47.184;8.538;2023-03-02T13:33:16;32.60;;;16.20;;
7515;SDS011;3799;47.184;8.538;2023-03-02T13:35:49;28.88;;;14.93;;
7515;SDS011;3799;47.184;8.538;2023-03-02T13:38:21;35.80;;;16.25;;
7515;SDS011;3799;47.184;8.538;2023-03-02T13:40:53;27.92;;;14.35;;
7515;SDS011;3799;47.184;8.538;2023-03-02T13:45:59;32.28;;;16.15;;
7515;SDS011;3799;47.184;8.538;2023-03-02T13:48:30;30.23;;;15.45;;
7515;SDS011;3799;47.184;8.538;2023-03-02T13:50:59;29.50;;;14.90;;
7515;SDS011;3799;47.184;8.538;2023-03-02T13:56:05;28.55;;;14.68;;
7515;SDS011;3799;47.184;8.538;2023-03-02T13:58:43;29.52;;;15.63;;
7515;SDS011;3799;47.184;8.538;2023-03-02T14:01:11;29.92;;;15.40;;
7515;SDS011;3799;47.184;8.538;2023-03-02T14:03:39;30.75;;;15.55;;
7515;SDS011;3799;47.184;8.538;2023-03-02T14:06:09;29.45;;;15.07;;
7515;SDS011;3799;47.184;8.538;2023-03-02T14:08:37;27.50;;;15.68;;
7515;SDS011;3799;47.184;8.538;2023-03-02T14:11:11;27.95;;;14.57;;
7515;SDS011;3799;47.184;8.538;2023-03-02T14:13:44;27.83;;;14.55;;
7515;SDS011;3799;47.184;8.538;2023-03-02T14:16:16;25.90;;;14.18;;
7515;SDS011;3799;47.184;8.538;2023-03-02T14:18:45;29.38;;;15.85;;
7515;SDS011;3799;47.184;8.538;2023-03-02T14:21:20;29.38;;;15.27;;
7515;SDS011;3799;47.184;8.538;2023-03-02T14:23:50;29.38;;;16.58;;
7515;SDS011;3799;47.184;8.538;2023-03-02T14:26:30;29.05;;;14.68;;
7515;SDS011;3799;47.184;8.538;2023-03-02T14:28:58;28.77;;;15.20;;
7515;SDS011;3799;47.184;8.538;2023-03-02T14:31:46;28.75;;;15.45;;
7515;SDS011;3799;47.184;8.538;2023-03-02T14:34:14;29.98;;;15.05;;
7515;SDS011;3799;47.184;8.538;2023-03-02T14:36:42;25.23;;;13.52;;
7515;SDS011;3799;47.184;8.538;2023-03-02T14:39:30;28.02;;;16.00;;
7515;SDS011;3799;47.184;8.538;2023-03-02T14:42:05;28.95;;;15.02;;
7515;SDS011;3799;47.184;8.538;2023-03-02T14:44:44;24.65;;;15.55;;
7515;SDS011;3799;47.184;8.538;2023-03-02T14:47:12;29.80;;;16.23;;
7515;SDS011;3799;47.184;8.538;2023-03-02T14:49:42;29.63;;;15.93;;
7515;SDS011;3799;47.184;8.538;2023-03-02T14:54:47;28.02;;;15.32;;
7515;SDS011;3799;47.184;8.538;2023-03-02T14:57:26;31.10;;;15.55;;
7515;SDS011;3799;47.184;8.538;2023-03-02T14:59:58;31.45;;;17.17;;
7515;SDS011;3799;47.184;8.538;2023-03-02T15:02:28;30.30;;;16.15;;
7515;SDS011;3799;47.184;8.538;2023-03-02T15:04:58;34.00;;;17.52;;
7515;SDS011;3799;47.184;8.538;2023-03-02T15:07:26;30.88;;;15.55;;
7515;SDS011;3799;47.184;8.538;2023-03-02T15:09:57;30.67;;;15.40;;
7515;SDS011;3799;47.184;8.538;2023-03-02T15:12:24;27.35;;;16.23;;
7515;SDS011;3799;47.184;8.538;2023-03-02T15:14:52;32.78;;;16.27;;
7515;SDS011;3799;47.184;8.538;2023-03-02T15:17:20;31.90;;;16.05;;
7515;SDS011;3799;47.184;8.538;2023-03-02T15:19:48;32.20;;;16.55;;
7515;SDS011;3799;47.184;8.538;2023-03-02T15:22:15;30.42;;;16.13;;
7515;SDS011;3799;47.184;8.538;2023-03-02T15:24:42;33.50;;;16.55;;
7515;SDS011;3799;47.184;8.538;2023-03-02T15:27:10;29.52;;;15.65;;
7515;SDS011;3799;47.184;8.538;2023-03-02T15:29:37;36.45;;;16.23;;
7515;SDS011;3799;47.184;8.538;2023-03-02T15:32:04;33.92;;;16.88;;
7515;SDS011;3799;47.184;8.538;2023-03-02T15:34:31;33.33;;;16.45;;
7515;SDS011;3799;47.184;8.538;2023-03-02T15:37:09;29.63;;;15.68;;
7515;SDS011;3799;47.184;8.538;2023-03-02T15:39:40;35.45;;;16.75;;
7515;SDS011;3799;47.184;8.538;2023-03-02T15:42:08;33.35;;;15.68;;
7515;SDS011;3799;47.184;8.538;2023-03-02T15:44:39;34.95;;;17.20;;
7515;SDS011;3799;47.184;8.538;2023-03-02T15:47:10;30.67;;;16.20;;
7515;SDS011;3799;47.184;8.538;2023-03-02T15:49:41;35.63;;;15.73;;
7515;SDS011;3799;47.184;8.538;2023-03-02T15:52:11;30.40;;;15.38;;
7515;SDS011;3799;47.184;8.538;2023-03-02T15:54:43;29.70;;;15.85;;
7515;SDS011;3799;47.184;8.538;2023-03-02T15:57:10;30.80;;;16.10;;
7515;SDS011;3799;47.184;8.538;2023-03-02T15:59:38;34.05;;;15.90;;
7515;SDS011;3799;47.184;8.538;2023-03-02T16:02:05;29.77;;;15.70;;
7515;SDS011;3799;47.184;8.538;2023-03-02T16:04:34;34.35;;;16.42;;
7515;SDS011;3799;47.184;8.538;2023-03-02T16:07:02;39.28;;;16.73;;
7515;SDS011;3799;47.184;8.538;2023-03-02T16:09:30;29.95;;;15.20;;
7515;SDS011;3799;47.184;8.538;2023-03-02T16:11:57;34.80;;;16.52;;
7515;SDS011;3799;47.184;8.538;2023-03-02T16:14:25;34.22;;;16.42;;
7515;SDS011;3799;47.184;8.538;2023-03-02T16:16:52;31.77;;;15.88;;
7515;SDS011;3799;47.184;8.538;2023-03-02T16:19:20;34.50;;;15.15;;
7515;SDS011;3799;47.184;8.538;2023-03-02T16:21:48;32.42;;;15.98;;
7515;SDS011;3799;47.184;8.538;2023-03-02T16:24:15;30.58;;;15.65;;
7515;SDS011;3799;47.184;8.538;2023-03-02T16:26:43;34.42;;;16.58;;